Aérodrome :
LOGIN :

S'inscrire | Disclaimer

   EN    FR    IT 

 










Légende :    VFR   VFR Marginal   IFR   IFR Intensif   IFR Très Intensif
Visi : 
Plafond : 
>= 8 km
>= 3000ft
5 à 8 km
1000 à 3000 ft
1500m à 5 km
500 à 1000 ft
800 à 1500m
200 à 500 ft
< 800m
< 200 ft
Symboles :   Orages  Brouillard  Fortes neiges  Fortes précipitations  Vent > 20 kt
SIGMETs :   Divers  Orages  Givrage  Turbulence  Onde Orograph.  Cendres Volcan.







- Altitude de l'aérodrome : 1197 ft
- Code IATA : SPM


ETAD - Spangdahlem Ab

DERNIER METAR :
  • 180756Z AUTO 00000KT 9999 CLR 01/M01 A3014 RMK AO2 SLP210 T00111011 $

METARs EXPIRÉS :
  • 180656Z AUTO 00000KT 9999 CLR 01/M03 A3013 RMK AO2 SLP207 T00081028 $
  • 180556Z AUTO 00000KT 9999 CLR 00/M03 A3013 RMK AO2 SLP207 T00021027 10043 21007 56002 $

TAF COR TAF ETAD
Valide du 18 à 05h jusqu'au 19 à 11h UTC


180503Z 1805/1911 20003KT 9999 SKC QNH3009INS
BECMG 1901/1902 23008KT 9999 SCT005 BKN010 OVC030 QNH3008INS
TEMPO 1906/1911 27008KT 5000 -RA BKN005 OVC010 TX12/1815Z TN00/1805Z
Pas de NOTAMs connus pour ce terrain.



MET'MAP, la Météo Aéronautique d'un coup d'oeil ! - Copyright ORBIFLY Décembre 2007 - Disclaimer

ORBIFLY MET'MAP TEAM :

Programmation & Développement : Alexandra Zaïnal
Conception & Développement : Baudouin d'Aumeries
Co-Programmation & Développement : Marc-Olivier Méhu
Soutien technique & logistique : Manuel Goepfert

Contact : metmap@orbifly.com




SOURCES & CREDITS :

   NOAA